Time;durP1;ratioP1;P1;durP2;ratioP2;P2;SDS_P1;SDS_P2;PMS_P1;PMS_P2;Temp;Humidity;BMP_temperature;BMP_pressure;BME280_temperature;BME280_humidity;BME280_pressure;Samples;Min_cycle;Max_cycle;Signal;HPM_P1;HPM_P2
2024/01/17 00:02:03;;;;;;;26.77;9.85;;;;;;;;;;5015169;28;20021;-59
2024/01/17 00:04:28;;;;;;;24.10;9.80;;;;;;;;;;5018417;28;20496;-59
2024/01/17 00:06:55;;;;;;;24.38;9.80;;;;;;;;;;5016483;28;20017;-58
2024/01/17 00:09:20;;;;;;;23.02;8.90;;;;;;;;;;5019261;28;20104;-59
2024/01/17 00:11:45;;;;;;;25.08;9.57;;;;;;;;;;5021741;28;20049;-58
2024/01/17 00:14:11;;;;;;;22.63;9.63;;;;;;;;;;5019108;28;20053;-58
2024/01/17 00:16:36;;;;;;;26.77;11.23;;;;;;;;;;5018864;28;20049;-59
2024/01/17 00:19:01;;;;;;;24.45;10.55;;;;;;;;;;5013615;28;20014;-59
2024/01/17 00:21:27;;;;;;;25.00;9.07;;;;;;;;;;5020375;28;20109;-59
2024/01/17 00:23:52;;;;;;;25.73;10.30;;;;;;;;;;5020779;28;20279;-59
2024/01/17 00:26:17;;;;;;;23.60;8.80;;;;;;;;;;5020760;28;20028;-60
2024/01/17 00:28:42;;;;;;;21.67;8.90;;;;;;;;;;5024241;28;20399;-60
2024/01/17 00:31:08;;;;;;;23.50;9.07;;;;;;;;;;5021569;28;20256;-60
2024/01/17 00:33:33;;;;;;;23.38;9.20;;;;;;;;;;5022402;28;20375;-59
2024/01/17 00:35:58;;;;;;;25.92;9.15;;;;;;;;;;5019093;28;20022;-60
2024/01/17 00:38:24;;;;;;;21.00;7.97;;;;;;;;;;5015971;28;20042;-59
2024/01/17 00:40:49;;;;;;;23.20;9.67;;;;;;;;;;5022943;28;20418;-59
2024/01/17 00:43:14;;;;;;;24.33;9.40;;;;;;;;;;5017151;28;20356;-59
2024/01/17 00:45:39;;;;;;;22.23;8.53;;;;;;;;;;5020301;28;20279;-59
2024/01/17 00:48:05;;;;;;;23.58;10.05;;;;;;;;;;5015888;28;20279;-59
2024/01/17 00:50:30;;;;;;;24.80;9.40;;;;;;;;;;5015055;28;20498;-58
2024/01/17 00:52:55;;;;;;;23.17;8.88;;;;;;;;;;5015799;28;20030;-58
2024/01/17 00:55:20;;;;;;;22.57;9.20;;;;;;;;;;5015093;28;20060;-58
2024/01/17 00:57:45;;;;;;;24.67;8.80;;;;;;;;;;5014508;28;20768;-60
2024/01/17 01:00:11;;;;;;;23.63;9.20;;;;;;;;;;5022166;28;20279;-59
2024/01/17 01:02:36;;;;;;;27.10;11.32;;;;;;;;;;5017196;28;20837;-60
2024/01/17 01:05:01;;;;;;;21.73;8.70;;;;;;;;;;5016206;28;20026;-60
2024/01/17 01:07:27;;;;;;;21.38;8.48;;;;;;;;;;5022685;28;20033;-60
2024/01/17 01:09:52;;;;;;;22.42;9.20;;;;;;;;;;5021778;28;20052;-60
2024/01/17 01:12:17;;;;;;;25.30;8.93;;;;;;;;;;5022950;28;20025;-59
2024/01/17 01:14:42;;;;;;;24.00;10.87;;;;;;;;;;5020702;28;20505;-59
2024/01/17 01:17:07;;;;;;;22.73;9.43;;;;;;;;;;5018684;28;20302;-58
2024/01/17 01:19:33;;;;;;;24.17;8.90;;;;;;;;;;5013217;28;20749;-59
2024/01/17 01:21:58;;;;;;;22.35;8.40;;;;;;;;;;5014290;28;20288;-59
2024/01/17 01:24:23;;;;;;;24.67;8.77;;;;;;;;;;5015819;28;20017;-59
2024/01/17 01:26:48;;;;;;;25.92;9.93;;;;;;;;;;5017228;28;20252;-60
2024/01/17 01:29:14;;;;;;;24.25;9.77;;;;;;;;;;5023854;28;20013;-58
2024/01/17 01:31:39;;;;;;;21.52;8.93;;;;;;;;;;5015016;28;20045;-59
2024/01/17 01:34:04;;;;;;;22.45;9.02;;;;;;;;;;5021187;28;20029;-59
2024/01/17 01:36:29;;;;;;;23.23;9.20;;;;;;;;;;5020684;28;20857;-59
2024/01/17 01:38:54;;;;;;;22.57;8.30;;;;;;;;;;5019631;28;20264;-59
2024/01/17 01:41:20;;;;;;;22.53;9.17;;;;;;;;;;5023693;28;21113;-59
2024/01/17 01:43:45;;;;;;;23.23;9.67;;;;;;;;;;5020528;28;20394;-59
2024/01/17 01:46:16;;;;;;;24.50;9.35;;;;;;;;;;5020324;28;20647;-58
2024/01/17 01:48:42;;;;;;;25.48;8.70;;;;;;;;;;5019571;28;20112;-58
2024/01/17 01:51:08;;;;;;;24.80;9.45;;;;;;;;;;5018103;28;20099;-59
2024/01/17 01:53:34;;;;;;;23.08;9.02;;;;;;;;;;5020043;28;20025;-59
2024/01/17 01:56:00;;;;;;;24.63;9.82;;;;;;;;;;5021268;28;20026;-58
2024/01/17 01:58:25;;;;;;;23.48;8.82;;;;;;;;;;5020821;28;20470;-60
2024/01/17 02:00:52;;;;;;;22.50;8.98;;;;;;;;;;5027151;28;20037;-60
2024/01/17 02:03:17;;;;;;;23.95;9.68;;;;;;;;;;5026899;28;20028;-60
2024/01/17 02:05:43;;;;;;;25.00;8.82;;;;;;;;;;5019599;28;20017;-60
2024/01/17 02:08:08;;;;;;;24.60;9.40;;;;;;;;;;5025222;28;20037;-58
2024/01/17 02:10:35;;;;;;;24.60;9.48;;;;;;;;;;5024260;28;20391;-59
2024/01/17 02:13:00;;;;;;;23.33;9.10;;;;;;;;;;5024504;28;20029;-58
2024/01/17 02:15:25;;;;;;;21.85;8.40;;;;;;;;;;5021474;28;20083;-58
2024/01/17 02:17:50;;;;;;;24.60;9.83;;;;;;;;;;5022405;28;20458;-58
2024/01/17 02:20:15;;;;;;;25.38;10.57;;;;;;;;;;5023529;28;20272;-59
2024/01/17 02:22:41;;;;;;;25.80;10.93;;;;;;;;;;5020219;28;20017;-59
2024/01/17 02:25:06;;;;;;;24.27;9.70;;;;;;;;;;5022743;28;20022;-59
2024/01/17 02:27:31;;;;;;;24.13;9.68;;;;;;;;;;5022104;28;20343;-58
2024/01/17 02:29:57;;;;;;;22.90;9.75;;;;;;;;;;5023177;28;20362;-58
2024/01/17 02:32:22;;;;;;;24.10;9.45;;;;;;;;;;5023785;28;20033;-58
2024/01/17 02:34:47;;;;;;;29.92;11.52;;;;;;;;;;5019922;28;20501;-58
2024/01/17 02:37:13;;;;;;;23.13;9.63;;;;;;;;;;5018796;28;20026;-58
2024/01/17 02:39:38;;;;;;;25.88;10.13;;;;;;;;;;5018482;28;20026;-59
2024/01/17 02:42:04;;;;;;;23.27;9.73;;;;;;;;;;5015630;28;20022;-57
2024/01/17 02:44:30;;;;;;;23.90;8.55;;;;;;;;;;5018545;28;20026;-58
2024/01/17 02:46:55;;;;;;;24.30;9.50;;;;;;;;;;5018505;28;20143;-58
2024/01/17 02:49:21;;;;;;;22.40;9.23;;;;;;;;;;5015069;28;20028;-58
2024/01/17 02:51:46;;;;;;;24.88;8.93;;;;;;;;;;5018864;28;20358;-58
2024/01/17 02:54:11;;;;;;;25.90;9.38;;;;;;;;;;5014852;28;20021;-58
2024/01/17 02:56:36;;;;;;;23.47;9.13;;;;;;;;;;5016805;28;20041;-58
2024/01/17 02:59:01;;;;;;;23.85;9.25;;;;;;;;;;5017666;28;20256;-59
2024/01/17 03:01:26;;;;;;;24.88;10.00;;;;;;;;;;5017728;28;20716;-58
2024/01/17 03:03:52;;;;;;;21.00;8.53;;;;;;;;;;5019972;28;20080;-58
2024/01/17 03:06:17;;;;;;;25.02;9.02;;;;;;;;;;5017085;28;20311;-58
2024/01/17 03:08:43;;;;;;;22.95;8.52;;;;;;;;;;5020929;28;20096;-58
2024/01/17 03:11:08;;;;;;;24.80;8.90;;;;;;;;;;5023115;28;20406;-59
2024/01/17 03:13:33;;;;;;;24.83;9.25;;;;;;;;;;5020817;28;20490;-59
2024/01/17 03:15:58;;;;;;;23.92;9.77;;;;;;;;;;5023164;28;20057;-59
2024/01/17 03:18:24;;;;;;;22.42;8.80;;;;;;;;;;5019957;28;20521;-59
2024/01/17 03:20:49;;;;;;;27.40;9.63;;;;;;;;;;5018036;28;20346;-59
2024/01/17 03:23:14;;;;;;;22.53;8.30;;;;;;;;;;5022275;28;20029;-59
2024/01/17 03:25:39;;;;;;;24.00;9.60;;;;;;;;;;5023660;28;20301;-57
2024/01/17 03:28:05;;;;;;;23.90;9.77;;;;;;;;;;5021595;28;20036;-58
2024/01/17 03:30:30;;;;;;;22.20;8.85;;;;;;;;;;5019560;28;20280;-59
2024/01/17 03:32:55;;;;;;;21.67;8.85;;;;;;;;;;5025033;28;20044;-60
2024/01/17 03:35:21;;;;;;;23.83;9.37;;;;;;;;;;5020065;28;20017;-60
2024/01/17 03:37:46;;;;;;;24.92;9.52;;;;;;;;;;5019316;28;20383;-60
2024/01/17 03:40:12;;;;;;;24.73;9.52;;;;;;;;;;5018602;28;20021;-58
2024/01/17 03:42:37;;;;;;;24.63;8.98;;;;;;;;;;5021897;28;20090;-58
2024/01/17 03:45:02;;;;;;;22.30;8.80;;;;;;;;;;5020154;28;20574;-60
2024/01/17 03:47:27;;;;;;;22.50;8.50;;;;;;;;;;5023719;28;20021;-62
2024/01/17 03:49:53;;;;;;;21.73;8.30;;;;;;;;;;5022666;28;20028;-61
2024/01/17 03:52:19;;;;;;;27.20;11.60;;;;;;;;;;5024422;28;20610;-61
2024/01/17 03:54:44;;;;;;;24.67;9.07;;;;;;;;;;5023356;28;20292;-61
2024/01/17 03:57:09;;;;;;;24.58;9.32;;;;;;;;;;5018874;28;20096;-59
2024/01/17 03:59:35;;;;;;;22.77;8.82;;;;;;;;;;5015821;28;20022;-59
2024/01/17 04:02:00;;;;;;;23.63;9.05;;;;;;;;;;5026635;28;20079;-60
2024/01/17 04:04:26;;;;;;;24.75;9.65;;;;;;;;;;5019865;28;20052;-59
2024/01/17 04:06:52;;;;;;;24.17;9.75;;;;;;;;;;5018731;28;20059;-59
2024/01/17 04:09:17;;;;;;;23.70;9.00;;;;;;;;;;5020692;28;20006;-59
2024/01/17 04:11:42;;;;;;;23.50;8.43;;;;;;;;;;5023119;28;20021;-58
2024/01/17 04:14:07;;;;;;;25.63;8.95;;;;;;;;;;5024299;28;20161;-59
2024/01/17 04:16:34;;;;;;;26.50;11.47;;;;;;;;;;5021810;28;20419;-60
2024/01/17 04:19:00;;;;;;;25.73;10.25;;;;;;;;;;5017224;28;21119;-60
2024/01/17 04:21:25;;;;;;;23.63;8.38;;;;;;;;;;5019303;28;20022;-59
2024/01/17 04:23:50;;;;;;;20.98;7.82;;;;;;;;;;5018266;28;20029;-60
2024/01/17 04:26:23;;;;;;;23.38;7.82;;;;;;;;;;5015615;28;20014;-60
2024/01/17 04:28:48;;;;;;;22.58;8.18;;;;;;;;;;5015820;28;20457;-60
2024/01/17 04:31:24;;;;;;;24.92;9.30;;;;;;;;;;5021005;28;20025;-60
2024/01/17 04:33:50;;;;;;;25.23;10.20;;;;;;;;;;5016808;28;20037;-59
2024/01/17 04:36:18;;;;;;;23.88;8.57;;;;;;;;;;5017818;28;20030;-59
2024/01/17 04:38:44;;;;;;;24.65;8.63;;;;;;;;;;5019404;28;20024;-58
2024/01/17 04:41:12;;;;;;;25.67;9.00;;;;;;;;;;5019803;28;20010;-59
2024/01/17 04:43:41;;;;;;;23.95;8.70;;;;;;;;;;5014710;28;20022;-58
2024/01/17 04:46:12;;;;;;;23.75;9.30;;;;;;;;;;5014859;28;20022;-60
2024/01/17 04:48:37;;;;;;;22.40;8.70;;;;;;;;;;5014723;28;20022;-59
2024/01/17 04:51:04;;;;;;;22.33;8.40;;;;;;;;;;5015936;28;20353;-59
2024/01/17 04:53:30;;;;;;;24.63;8.82;;;;;;;;;;5014269;28;20481;-59
2024/01/17 04:55:55;;;;;;;25.65;8.82;;;;;;;;;;5015193;28;20037;-59
2024/01/17 04:58:20;;;;;;;25.88;9.85;;;;;;;;;;5014100;28;20073;-59
2024/01/17 05:00:45;;;;;;;24.67;11.02;;;;;;;;;;5011759;28;20446;-59
2024/01/17 05:03:11;;;;;;;23.13;8.55;;;;;;;;;;5015324;28;20563;-59
2024/01/17 05:05:36;;;;;;;23.03;8.33;;;;;;;;;;5014213;28;20029;-59
2024/01/17 05:08:02;;;;;;;22.33;7.72;;;;;;;;;;5013745;28;20355;-59
2024/01/17 05:10:27;;;;;;;22.02;8.60;;;;;;;;;;5012994;28;20484;-59
2024/01/17 05:12:52;;;;;;;24.30;8.60;;;;;;;;;;5021079;28;20572;-59
2024/01/17 05:15:17;;;;;;;23.42;8.50;;;;;;;;;;5020120;28;20280;-60
2024/01/17 05:17:42;;;;;;;24.17;8.20;;;;;;;;;;5013251;28;20032;-58
2024/01/17 05:20:08;;;;;;;23.70;9.13;;;;;;;;;;5016962;28;20037;-58
2024/01/17 05:22:39;;;;;;;24.15;8.48;;;;;;;;;;5015027;28;20017;-58
2024/01/17 05:25:05;;;;;;;24.35;10.43;;;;;;;;;;5019321;28;20080;-58
2024/01/17 05:27:30;;;;;;;25.90;9.18;;;;;;;;;;5019059;28;20426;-58
2024/01/17 05:29:55;;;;;;;23.10;8.77;;;;;;;;;;5015172;28;20029;-60
2024/01/17 05:32:21;;;;;;;24.27;8.43;;;;;;;;;;5021231;28;20272;-60
2024/01/17 05:34:48;;;;;;;24.00;8.80;;;;;;;;;;5016035;28;20297;-60
2024/01/17 05:37:13;;;;;;;25.02;9.75;;;;;;;;;;5014149;28;20362;-61
2024/01/17 05:39:38;;;;;;;24.50;9.10;;;;;;;;;;5012519;28;20492;-61
2024/01/17 05:42:03;;;;;;;23.63;9.23;;;;;;;;;;5015742;28;20036;-62
2024/01/17 05:44:29;;;;;;;23.60;8.27;;;;;;;;;;5020722;28;20022;-61
2024/01/17 05:46:54;;;;;;;24.07;9.10;;;;;;;;;;5012279;28;20792;-60
2024/01/17 05:49:19;;;;;;;23.90;9.30;;;;;;;;;;5017247;22;20287;-60
2024/01/17 05:51:44;;;;;;;24.90;10.90;;;;;;;;;;4993448;28;20037;-60
2024/01/17 05:54:10;;;;;;;22.10;8.48;;;;;;;;;;4994774;28;20280;-61
2024/01/17 05:56:35;;;;;;;24.03;8.40;;;;;;;;;;4994974;28;20019;-61
2024/01/17 05:59:00;;;;;;;22.30;7.80;;;;;;;;;;4993627;28;20756;-60
2024/01/17 06:01:25;;;;;;;22.08;8.48;;;;;;;;;;4993071;28;20030;-62
2024/01/17 06:03:50;;;;;;;26.50;11.80;;;;;;;;;;4994621;28;20026;-61
2024/01/17 06:06:17;;;;;;;27.83;11.53;;;;;;;;;;4993439;28;21738;-61
2024/01/17 06:08:42;;;;;;;23.95;8.90;;;;;;;;;;4993161;28;20468;-61
2024/01/17 06:11:07;;;;;;;23.80;9.40;;;;;;;;;;4993198;28;20121;-62
2024/01/17 06:13:33;;;;;;;25.17;9.45;;;;;;;;;;4992234;28;20480;-62
2024/01/17 06:15:58;;;;;;;26.50;11.32;;;;;;;;;;4992512;28;20382;-62
2024/01/17 06:18:23;;;;;;;25.93;11.03;;;;;;;;;;4991689;28;20034;-63
2024/01/17 06:20:48;;;;;;;26.65;10.70;;;;;;;;;;4995217;28;20271;-62
2024/01/17 06:23:13;;;;;;;23.97;8.57;;;;;;;;;;5000114;28;20030;-62
2024/01/17 06:25:38;;;;;;;25.92;10.88;;;;;;;;;;5000400;28;20268;-63
2024/01/17 06:28:04;;;;;;;23.87;9.90;;;;;;;;;;5008505;28;20437;-62
2024/01/17 06:30:29;;;;;;;26.10;9.70;;;;;;;;;;5000551;28;20400;-62
2024/01/17 06:32:54;;;;;;;27.13;8.80;;;;;;;;;;5012137;28;20047;-63
2024/01/17 06:35:19;;;;;;;25.70;9.60;;;;;;;;;;4993268;28;20716;-62
2024/01/17 06:37:44;;;;;;;25.17;9.83;;;;;;;;;;5002944;28;20018;-62
2024/01/17 06:40:10;;;;;;;26.83;9.70;;;;;;;;;;5002262;28;20350;-62
2024/01/17 06:42:36;;;;;;;25.00;9.40;;;;;;;;;;4995012;28;20094;-63
2024/01/17 06:45:01;;;;;;;25.30;8.90;;;;;;;;;;5002030;28;20193;-62
2024/01/17 06:47:27;;;;;;;24.53;8.83;;;;;;;;;;4996019;28;20028;-62
2024/01/17 06:49:52;;;;;;;26.73;9.40;;;;;;;;;;4995755;28;20305;-61
2024/01/17 06:52:17;;;;;;;22.65;8.30;;;;;;;;;;4998803;28;20101;-63
2024/01/17 06:54:42;;;;;;;25.08;8.95;;;;;;;;;;4998084;28;20200;-61
2024/01/17 06:57:07;;;;;;;24.27;9.20;;;;;;;;;;4996225;28;20053;-62
2024/01/17 06:59:33;;;;;;;24.23;8.98;;;;;;;;;;4996484;28;20015;-62
2024/01/17 07:01:58;;;;;;;23.88;8.63;;;;;;;;;;4996433;28;20234;-62
2024/01/17 07:04:23;;;;;;;22.98;8.07;;;;;;;;;;4999023;28;20050;-62
2024/01/17 07:06:48;;;;;;;23.47;9.03;;;;;;;;;;5002089;28;20018;-62
2024/01/17 07:09:14;;;;;;;25.63;9.25;;;;;;;;;;5011918;28;20368;-62
2024/01/17 07:11:40;;;;;;;23.83;8.23;;;;;;;;;;5011983;28;20101;-62
2024/01/17 07:14:05;;;;;;;22.98;8.07;;;;;;;;;;5012148;28;20156;-62
2024/01/17 07:16:30;;;;;;;22.88;7.97;;;;;;;;;;5011897;28;20029;-62
2024/01/17 07:18:57;;;;;;;21.83;8.10;;;;;;;;;;5000628;28;20031;-63
2024/01/17 07:21:22;;;;;;;23.88;9.18;;;;;;;;;;4991670;28;20022;-62
2024/01/17 07:23:48;;;;;;;24.25;8.07;;;;;;;;;;4991180;28;20383;-62
2024/01/17 07:26:13;;;;;;;27.50;9.40;;;;;;;;;;5002444;28;20068;-62
2024/01/17 07:28:38;;;;;;;26.27;9.03;;;;;;;;;;4991208;28;20018;-63
2024/01/17 07:31:03;;;;;;;22.88;8.00;;;;;;;;;;4990892;28;20304;-63
2024/01/17 07:33:28;;;;;;;21.55;7.60;;;;;;;;;;4990403;28;20045;-63
2024/01/17 07:35:54;;;;;;;21.52;7.45;;;;;;;;;;4994764;28;20030;-62
2024/01/17 07:38:19;;;;;;;22.65;8.30;;;;;;;;;;5000488;28;20457;-62
2024/01/17 07:40:46;;;;;;;22.33;8.50;;;;;;;;;;4991966;28;20022;-61
2024/01/17 07:43:11;;;;;;;22.77;7.88;;;;;;;;;;4992313;28;20285;-62
2024/01/17 07:45:36;;;;;;;23.90;8.75;;;;;;;;;;4993432;28;20014;-62
2024/01/17 07:48:01;;;;;;;25.55;8.80;;;;;;;;;;4996117;28;20053;-62
2024/01/17 07:50:26;;;;;;;23.70;8.32;;;;;;;;;;4993947;28;20519;-62
2024/01/17 07:52:53;;;;;;;22.73;7.88;;;;;;;;;;4994772;28;20581;-63
2024/01/17 07:55:18;;;;;;;24.27;8.77;;;;;;;;;;4996429;28;20105;-63
2024/01/17 07:57:43;;;;;;;23.15;8.13;;;;;;;;;;4998154;28;20257;-61
2024/01/17 08:00:08;;;;;;;23.37;8.57;;;;;;;;;;4996730;28;20025;-61
2024/01/17 08:02:34;;;;;;;23.02;8.65;;;;;;;;;;4995422;28;20820;-62
2024/01/17 08:04:59;;;;;;;24.65;9.30;;;;;;;;;;4997582;28;20101;-62
2024/01/17 08:07:26;;;;;;;24.33;8.83;;;;;;;;;;4995970;28;20434;-62
2024/01/17 08:09:51;;;;;;;25.38;10.15;;;;;;;;;;4996970;28;20344;-63
2024/01/17 08:12:16;;;;;;;25.42;10.18;;;;;;;;;;4995195;28;20113;-62
2024/01/17 08:14:42;;;;;;;25.27;10.77;;;;;;;;;;4994119;28;20026;-62
2024/01/17 08:17:07;;;;;;;25.13;10.65;;;;;;;;;;4995555;28;20269;-61
2024/01/17 08:19:32;;;;;;;25.85;9.70;;;;;;;;;;4997664;28;20031;-61
2024/01/17 08:21:57;;;;;;;26.15;10.23;;;;;;;;;;4995876;28;20072;-61
2024/01/17 08:24:23;;;;;;;24.98;9.82;;;;;;;;;;4996584;28;20030;-62
2024/01/17 08:26:48;;;;;;;24.98;10.25;;;;;;;;;;5000223;28;20089;-62
2024/01/17 08:29:16;;;;;;;25.58;10.30;;;;;;;;;;4999221;28;20031;-63
2024/01/17 08:31:41;;;;;;;24.98;10.73;;;;;;;;;;4997495;28;20033;-63
2024/01/17 08:34:06;;;;;;;24.50;9.75;;;;;;;;;;5002819;28;20445;-64
2024/01/17 08:36:32;;;;;;;25.93;11.07;;;;;;;;;;5006995;28;20060;-63
2024/01/17 08:38:57;;;;;;;28.05;12.98;;;;;;;;;;4993473;28;20264;-64
2024/01/17 08:41:22;;;;;;;29.60;12.30;;;;;;;;;;4999519;28;20180;-63
2024/01/17 08:43:47;;;;;;;24.83;10.40;;;;;;;;;;5006025;28;20013;-63
2024/01/17 08:46:13;;;;;;;25.73;10.45;;;;;;;;;;5005403;28;20285;-63
2024/01/17 08:48:38;;;;;;;24.45;10.55;;;;;;;;;;5004343;28;20038;-62
2024/01/17 08:51:04;;;;;;;26.60;10.47;;;;;;;;;;4993610;28;20074;-62
2024/01/17 08:53:31;;;;;;;24.70;10.15;;;;;;;;;;4997608;28;20297;-62
2024/01/17 08:55:57;;;;;;;26.20;11.15;;;;;;;;;;5003105;28;20030;-62
2024/01/17 08:58:22;;;;;;;26.55;10.18;;;;;;;;;;4996239;28;20699;-63
2024/01/17 09:00:47;;;;;;;25.75;10.13;;;;;;;;;;4996389;28;20021;-62
2024/01/17 09:03:12;;;;;;;26.17;11.10;;;;;;;;;;5006442;28;20438;-63
2024/01/17 09:05:38;;;;;;;27.63;12.07;;;;;;;;;;5009560;28;20057;-63
2024/01/17 09:08:03;;;;;;;26.00;12.10;;;;;;;;;;5010240;28;20413;-63
2024/01/17 09:10:29;;;;;;;27.75;11.40;;;;;;;;;;5010360;28;20018;-62
2024/01/17 09:12:55;;;;;;;27.00;11.63;;;;;;;;;;5010251;28;20021;-63
2024/01/17 09:15:20;;;;;;;26.48;11.25;;;;;;;;;;5010334;28;20476;-63
2024/01/17 09:17:46;;;;;;;24.90;10.80;;;;;;;;;;5009555;28;20425;-63
2024/01/17 09:20:11;;;;;;;26.73;11.23;;;;;;;;;;5009516;28;20113;-63
2024/01/17 09:22:38;;;;;;;24.70;10.85;;;;;;;;;;5009813;28;20382;-63
2024/01/17 09:25:04;;;;;;;26.17;11.35;;;;;;;;;;5004315;28;20014;-63
2024/01/17 09:27:29;;;;;;;25.25;10.68;;;;;;;;;;5007357;28;20026;-63
2024/01/17 09:29:55;;;;;;;26.20;11.90;;;;;;;;;;5005780;28;20049;-64
2024/01/17 09:32:20;;;;;;;24.15;9.93;;;;;;;;;;4990207;28;20085;-63
2024/01/17 09:34:47;;;;;;;26.35;9.13;;;;;;;;;;4990531;28;20390;-63
2024/01/17 09:37:13;;;;;;;23.80;8.73;;;;;;;;;;4990730;28;20105;-64
2024/01/17 09:39:38;;;;;;;25.17;9.13;;;;;;;;;;4990774;28;20105;-63
2024/01/17 09:42:05;;;;;;;23.13;9.10;;;;;;;;;;4990538;28;20018;-63
2024/01/17 09:44:31;;;;;;;25.58;8.77;;;;;;;;;;4990518;28;20305;-63
2024/01/17 09:46:59;;;;;;;22.38;8.05;;;;;;;;;;4996227;28;20046;-63
2024/01/17 09:49:24;;;;;;;22.30;9.20;;;;;;;;;;5002738;28;20128;-62
2024/01/17 09:51:50;;;;;;;23.65;8.95;;;;;;;;;;5002356;28;20410;-61
2024/01/17 09:54:16;;;;;;;23.08;8.40;;;;;;;;;;5001715;28;20057;-62
2024/01/17 09:56:42;;;;;;;22.15;7.95;;;;;;;;;;5004625;28;20396;-62
2024/01/17 09:59:13;;;;;;;22.95;8.68;;;;;;;;;;5006098;28;20117;-62
2024/01/17 10:01:39;;;;;;;21.30;7.82;;;;;;;;;;5008408;28;20093;-62
2024/01/17 10:04:04;;;;;;;23.88;8.40;;;;;;;;;;5000560;28;20463;-63
2024/01/17 10:06:31;;;;;;;23.15;8.75;;;;;;;;;;5009882;28;20758;-62
2024/01/17 10:08:56;;;;;;;22.52;7.82;;;;;;;;;;5005026;28;20442;-64
2024/01/17 10:11:21;;;;;;;22.95;8.45;;;;;;;;;;4994059;28;20542;-63
2024/01/17 10:13:46;;;;;;;22.83;8.13;;;;;;;;;;5001509;28;20034;-62
2024/01/17 10:16:12;;;;;;;24.13;8.93;;;;;;;;;;4996819;28;20033;-62
2024/01/17 10:18:37;;;;;;;25.73;8.85;;;;;;;;;;5001999;28;20392;-62
2024/01/17 10:21:03;;;;;;;24.00;8.60;;;;;;;;;;5001649;28;20445;-62
2024/01/17 10:23:28;;;;;;;21.77;8.10;;;;;;;;;;5004081;28;20038;-62
2024/01/17 10:25:54;;;;;;;24.88;8.30;;;;;;;;;;5010167;28;20014;-62
2024/01/17 10:28:19;;;;;;;23.03;7.80;;;;;;;;;;5000872;28;20536;-62
2024/01/17 10:30:44;;;;;;;25.83;8.77;;;;;;;;;;4999523;28;20273;-63
2024/01/17 10:33:09;;;;;;;20.67;7.57;;;;;;;;;;5005510;28;20276;-62
2024/01/17 10:35:35;;;;;;;24.07;7.63;;;;;;;;;;4999465;28;20037;-62
2024/01/17 10:38:00;;;;;;;20.08;7.45;;;;;;;;;;5005824;28;20273;-61
2024/01/17 10:40:25;;;;;;;22.20;7.45;;;;;;;;;;5008446;28;20654;-61
2024/01/17 10:43:09;;;;;;;22.17;7.55;;;;;;;;;;5001895;28;20026;-61
2024/01/17 10:45:35;;;;;;;23.73;8.30;;;;;;;;;;4995118;28;20026;-62
2024/01/17 10:48:01;;;;;;;23.55;7.68;;;;;;;;;;5003518;28;20022;-62
2024/01/17 10:50:27;;;;;;;22.38;7.72;;;;;;;;;;5002357;28;20046;-62
2024/01/17 10:52:56;;;;;;;22.00;7.70;;;;;;;;;;5003361;28;20058;-62
2024/01/17 10:55:23;;;;;;;24.88;8.50;;;;;;;;;;5005868;28;20062;-61
2024/01/17 10:57:50;;;;;;;25.20;8.63;;;;;;;;;;5000713;28;20102;-61
2024/01/17 11:00:17;;;;;;;23.45;8.57;;;;;;;;;;5000948;28;20109;-62
2024/01/17 11:02:42;;;;;;;22.70;8.00;;;;;;;;;;5003875;28;20065;-62
2024/01/17 11:05:10;;;;;;;26.30;8.23;;;;;;;;;;5001233;28;20033;-61
2024/01/17 11:07:35;;;;;;;23.15;8.40;;;;;;;;;;5002499;28;20050;-61
2024/01/17 11:10:02;;;;;;;24.55;8.75;;;;;;;;;;5002836;28;20415;-61
2024/01/17 11:12:29;;;;;;;22.98;7.75;;;;;;;;;;5002441;28;20928;-61
2024/01/17 11:14:55;;;;;;;23.65;8.35;;;;;;;;;;5001437;28;20528;-62
2024/01/17 11:17:21;;;;;;;23.70;8.73;;;;;;;;;;5003363;28;20087;-61
2024/01/17 11:19:47;;;;;;;24.13;8.55;;;;;;;;;;5000936;28;20034;-61
2024/01/17 11:22:12;;;;;;;24.42;8.55;;;;;;;;;;5000328;28;20026;-62
2024/01/17 11:24:47;;;;;;;24.55;8.85;;;;;;;;;;5001602;28;20087;-62
2024/01/17 11:27:31;;;;;;;21.58;8.05;;;;;;;;;;4995407;28;20436;-61
2024/01/17 11:30:05;;;;;;;22.88;8.30;;;;;;;;;;5005905;28;20401;-61
2024/01/17 11:32:36;;;;;;;23.50;8.48;;;;;;;;;;5001250;28;20026;-61
2024/01/17 11:35:02;;;;;;;24.05;9.43;;;;;;;;;;4999692;28;20037;-61
2024/01/17 11:37:28;;;;;;;23.73;8.82;;;;;;;;;;5003266;28;20030;-61
2024/01/17 11:39:57;;;;;;;25.30;10.10;;;;;;;;;;5000225;28;20034;-61
2024/01/17 11:42:23;;;;;;;27.33;11.23;;;;;;;;;;4995225;28;20053;-61
2024/01/17 11:44:50;;;;;;;25.50;9.48;;;;;;;;;;4997791;28;20477;-61
2024/01/17 11:47:18;;;;;;;25.40;8.98;;;;;;;;;;5004496;28;20053;-61
2024/01/17 11:49:43;;;;;;;23.27;9.23;;;;;;;;;;4999750;28;20061;-61
2024/01/17 11:52:29;;;;;;;24.35;9.18;;;;;;;;;;4996942;28;20569;-61
2024/01/17 11:54:55;;;;;;;23.40;8.88;;;;;;;;;;4999847;28;20092;-61
2024/01/17 11:57:20;;;;;;;24.10;9.27;;;;;;;;;;5004210;28;20030;-61
2024/01/17 12:00:02;;;;;;;25.73;10.10;;;;;;;;;;5004937;28;20121;-61
2024/01/17 12:02:34;;;;;;;27.17;10.75;;;;;;;;;;4999904;28;20097;-61
2024/01/17 12:04:59;;;;;;;25.23;9.18;;;;;;;;;;5003816;28;20057;-61
2024/01/17 12:07:24;;;;;;;22.45;9.27;;;;;;;;;;4993815;28;20135;-60
2024/01/17 12:09:50;;;;;;;26.17;10.20;;;;;;;;;;4995377;28;20014;-61
2024/01/17 12:12:19;;;;;;;25.52;9.13;;;;;;;;;;5009548;28;20345;-61
2024/01/17 12:14:44;;;;;;;25.42;10.43;;;;;;;;;;4997534;28;20030;-61
2024/01/17 12:17:10;;;;;;;24.17;9.67;;;;;;;;;;4993419;28;20025;-59
2024/01/17 12:19:35;;;;;;;26.80;9.88;;;;;;;;;;4993028;28;20881;-58
2024/01/17 12:22:00;;;;;;;25.17;10.88;;;;;;;;;;4997056;28;20540;-60
2024/01/17 12:24:25;;;;;;;26.00;11.20;;;;;;;;;;4994120;28;20462;-60
2024/01/17 12:26:51;;;;;;;25.65;10.25;;;;;;;;;;4993048;28;20034;-60
2024/01/17 12:29:16;;;;;;;25.60;11.13;;;;;;;;;;4994135;28;20033;-60
2024/01/17 12:31:41;;;;;;;24.00;9.27;;;;;;;;;;4993538;28;20816;-59
2024/01/17 12:34:06;;;;;;;24.30;9.45;;;;;;;;;;4992333;28;20277;-59
2024/01/17 12:36:32;;;;;;;26.45;9.93;;;;;;;;;;4993305;28;20486;-60
2024/01/17 12:39:00;;;;;;;27.42;10.48;;;;;;;;;;4996297;28;20029;-60
2024/01/17 12:41:25;;;;;;;23.25;9.23;;;;;;;;;;4994051;28;20058;-60
2024/01/17 12:43:51;;;;;;;26.57;9.53;;;;;;;;;;4992869;28;20050;-59
2024/01/17 12:46:17;;;;;;;26.00;10.30;;;;;;;;;;4994475;28;20598;-60
2024/01/17 12:48:54;;;;;;;25.83;10.27;;;;;;;;;;4992562;28;20088;-60
2024/01/17 12:51:19;;;;;;;24.42;9.18;;;;;;;;;;4996347;28;20046;-60
2024/01/17 12:53:44;;;;;;;25.50;9.60;;;;;;;;;;5009452;28;20028;-60
2024/01/17 12:56:11;;;;;;;26.63;9.85;;;;;;;;;;5003606;28;20026;-61
2024/01/17 12:58:37;;;;;;;25.48;9.52;;;;;;;;;;4995042;28;20525;-61
2024/01/17 13:01:03;;;;;;;24.20;10.02;;;;;;;;;;4998594;28;20019;-60
2024/01/17 13:03:29;;;;;;;25.65;10.07;;;;;;;;;;4995101;28;20064;-59
2024/01/17 13:06:00;;;;;;;27.05;9.95;;;;;;;;;;4998167;28;20022;-60
2024/01/17 13:08:26;;;;;;;27.40;11.15;;;;;;;;;;4990963;28;20120;-60
2024/01/17 13:10:52;;;;;;;24.85;10.73;;;;;;;;;;4990892;28;20471;-59
2024/01/17 13:13:21;;;;;;;24.17;10.50;;;;;;;;;;4990562;28;20125;-60
2024/01/17 13:15:51;;;;;;;28.42;12.43;;;;;;;;;;4990541;28;20026;-60
2024/01/17 13:18:19;;;;;;;27.15;11.50;;;;;;;;;;4990956;28;20064;-60
2024/01/17 13:20:44;;;;;;;24.58;10.60;;;;;;;;;;4989958;28;20018;-59
2024/01/17 13:23:09;;;;;;;24.45;10.02;;;;;;;;;;4989268;28;20434;-60
2024/01/17 13:25:35;;;;;;;27.53;11.23;;;;;;;;;;4989607;28;20372;-59
2024/01/17 13:28:01;;;;;;;24.20;9.98;;;;;;;;;;4988925;28;20690;-60
2024/01/17 13:30:27;;;;;;;23.55;9.18;;;;;;;;;;4988718;28;20077;-59
2024/01/17 13:32:52;;;;;;;25.13;10.77;;;;;;;;;;4989392;28;20076;-60
2024/01/17 13:35:17;;;;;;;24.50;9.90;;;;;;;;;;4987774;28;20034;-61
2024/01/17 13:37:43;;;;;;;24.67;10.77;;;;;;;;;;4987913;28;20081;-60
2024/01/17 13:40:09;;;;;;;27.33;11.27;;;;;;;;;;4990296;28;20018;-61
2024/01/17 13:42:34;;;;;;;24.92;10.75;;;;;;;;;;4990169;28;20045;-60
2024/01/17 13:45:00;;;;;;;26.33;12.00;;;;;;;;;;4990268;28;20034;-60
2024/01/17 13:47:25;;;;;;;27.40;12.30;;;;;;;;;;4990251;28;20041;-60
2024/01/17 13:49:52;;;;;;;26.80;12.17;;;;;;;;;;4991013;28;20328;-59
2024/01/17 13:52:20;;;;;;;31.58;14.13;;;;;;;;;;4998583;28;20269;-59
2024/01/17 13:54:46;;;;;;;28.27;13.13;;;;;;;;;;5000139;28;20022;-60
2024/01/17 13:57:11;;;;;;;28.95;13.02;;;;;;;;;;4996768;28;20539;-60
2024/01/17 13:59:39;;;;;;;27.80;12.63;;;;;;;;;;5009631;28;20022;-59
2024/01/17 14:02:05;;;;;;;26.20;10.95;;;;;;;;;;4989879;28;20291;-59
2024/01/17 14:04:30;;;;;;;24.70;11.00;;;;;;;;;;4990123;28;20121;-57
2024/01/17 14:06:55;;;;;;;25.52;10.45;;;;;;;;;;4991289;28;20031;-60
2024/01/17 14:09:23;;;;;;;26.65;11.52;;;;;;;;;;4991662;28;20014;-60
2024/01/17 14:11:50;;;;;;;26.92;10.82;;;;;;;;;;4999279;28;20122;-60
2024/01/17 14:14:15;;;;;;;39.38;20.25;;;;;;;;;;4992149;28;20014;-60
2024/01/17 14:16:40;;;;;;;28.65;12.25;;;;;;;;;;4990860;28;20387;-60
2024/01/17 14:19:06;;;;;;;26.52;12.20;;;;;;;;;;4992784;28;20010;-60